AirNav   TITAN Aviation Fuels
 
 1520 users online  

30TA Tri-Modal Air Park
Georgetown, Texas, USA

GOING TO GEORGETOWN?


FAA INFORMATION EFFECTIVE 07 OCTOBER 2021

Location

FAA Identifier: 30TA
Lat/Long: 30-35-30.7030N 097-43-21.0340W
30-35.511717N 097-43.350567W
30.5918619,-97.7225094
(estimated)
Elevation: 812 ft. / 247 m (estimated)
Variation: 07E (1985)
From city: 3 miles S of GEORGETOWN, TX
Time zone: UTC -5 (UTC -6 during Standard Time)
Zip code: 78681

Airport Operations

Airport use: Private use. Permission required prior to landing
Activation date: 04/1982
Control tower: no
ARTCC: HOUSTON CENTER
FSS: SAN ANGELO FLIGHT SERVICE STATION
Attendance: UNATNDD
Wind indicator: no
Segmented circle: no

Airport Communications

WX AWOS-3PT at GTU (6 nm NE): PHONE 512-869-3430
WX ASOS at RYW (14 nm SW): 119.375 (512-267-1365)
WX AWOS-3 at EDC (14 nm SE): 118.825 (512-616-2967)
WX AWOS-3PT at T74 (14 nm E): 119.75 (512-352-4995)

Nearby radio navigation aids

VOR radial/distance  VOR name  Freq  Var
CWKr316/16.2CENTEX VORTAC112.8006E
GRKr163/26.9GRAY VOR/DME111.8007E

Airport Services

Runway Information

Runway 13/31

Dimensions: 4800 x 50 ft. / 1463 x 15 m
Surface: gravel
RUNWAY 13  RUNWAY 31
Traffic pattern: leftleft
Obstructions: 30 ft. hill, 600 ft. from runway30 ft. pline, 800 ft. from runway

Airport Ownership and Management from official FAA records

Ownership: Privately-owned
Owner: TEXAS CRUSHED STONE CO
PO BOX 1000
GEORGETOWN, TX 78626
Phone 512-863-5511
Manager: W. B. (BILL) SNEAD
PO BOX 1000
GEORGETOWN, TX 78626
Phone 512-863-5511

Airport Operational Statistics

Aircraft based on the field: 1
Single engine airplanes: 1
    

Additional Remarks

FOR CD CTC AUSTIN APCH AT 512-269-7865.

Instrument Procedures

There are no published instrument procedures at 30TA.

Some nearby airports with instrument procedures:

KGTU - Georgetown Municipal Airport (6 nm NE)
KRYW - Lago Vista TX - Rusty Allen Airport (14 nm SW)
KEDC - Austin Executive Airport (14 nm SE)
T74 - Taylor Municipal Airport (14 nm E)
3R9 - Lakeway Airpark (20 nm SW)
 
Loc | Ops | Rwys | IFR | FBO | Links
Com | Nav | Svcs | Stats | Notes
Area around 30TA (Tri-Modal Air Park)
 
Road maps at: MapQuest Bing Google
 
Aerial photo
No photo
 
Sectional chart

 
Airport distance calculator
Flying to Tri-Modal Air Park? Find the distance to fly.

From to 30TA

Sunrise and sunset
Times for 22-Oct-2021
 Local
(UTC-5)
 Zulu
(UTC)
Morning civil twilight07:1512:15
Sunrise07:3912:39
Sunset18:5223:52
Evening civil twilight19:1600:16

Current date and time
Zulu (UTC)  22-Oct-2021 17:47:36
Local (UTC-5)  22-Oct-2021 12:47:36
 
METAR
KGTU 
5nm NE 
221656Z 14004KT 10SM CLR 27/19 A3011 RMK AO2 SLP192 T02670189
KRYW 
14nm SW 
221735Z AUTO 15004KT 10SM SCT032 BKN039 30/19 A3011 RMK AO2 T03010188
KEDC 
14nm SE 
221735Z AUTO 14007KT 9SM 28/19 A3007 RMK AO2
KT74 
14nm E 
221735Z AUTO 12006KT 10SM SCT034 28/19 A3008 RMK AO2 T02770192
KATT 
18nm S 
221651Z AUTO 00000KT 10SM CLR 28/18 A3010 RMK AO2 SLP180 T02780183
KAUS 
19nm S 
221653Z 00000KT 10SM FEW032 FEW050 28/19 A3008 RMK AO2 SLP177 T02780194 $
TAF
KAUS 
19nm S 
221120Z 2212/2318 14006KT P6SM FEW030 SCT250 FM230900 18004KT P6SM BKN015
NOTAMs
Click for the latest NOTAMs
NOTAMs are issued by the DoD/FAA and will open in a separate window not controlled by AirNav.

 

 
 

Would you like to see your business listed on this page?

 If your business provides an interesting product or service to pilots, flight crews, aircraft, or users of the Tri-Modal Air Park, you should consider listing it here.  To start the listing process, click on the button below
 
Add a business
 

Other Pages about Tri-Modal Air Park

Update a link
 
Copyright © AirNav, LLC. All rights reserved. Privacy Policy  Contact